createdAt,value
2023-03-26T00:01:33.586Z,12.47
2023-03-26T00:04:01.303Z,12.45
2023-03-26T00:06:31.829Z,12.44
2023-03-26T00:08:58.997Z,12.44
2023-03-26T00:11:28.832Z,12.43
2023-03-26T00:13:57.729Z,12.43
2023-03-26T00:16:30.462Z,12.42
2023-03-26T00:18:58.685Z,12.42
2023-03-26T00:21:29.067Z,12.41
2023-03-26T00:24:04.690Z,12.40
2023-03-26T00:26:37.512Z,12.39
2023-03-26T00:29:06.771Z,12.36
2023-03-26T00:31:34.486Z,12.36
2023-03-26T00:34:03.752Z,12.36
2023-03-26T00:36:31.131Z,12.36
2023-03-26T00:38:58.056Z,12.37
2023-03-26T00:41:26.986Z,12.36
2023-03-26T00:43:57.278Z,12.35
2023-03-26T00:46:26.570Z,12.35
2023-03-26T00:48:54.162Z,12.35
2023-03-26T00:51:22.033Z,12.36
2023-03-26T00:53:50.881Z,12.36
2023-03-26T00:56:18.918Z,12.39
2023-03-26T00:58:47.409Z,12.39
2023-03-26T01:01:21.640Z,12.40
2023-03-26T01:04:04.801Z,12.39
2023-03-26T01:06:37.874Z,12.42
2023-03-26T01:09:17.268Z,12.44
2023-03-26T01:11:45.011Z,12.46
2023-03-26T01:14:26.842Z,12.46
2023-03-26T01:16:57.435Z,12.46
2023-03-26T01:19:38.210Z,12.46
2023-03-26T01:22:11.136Z,12.43
2023-03-26T01:24:39.958Z,12.43
2023-03-26T01:27:42.687Z,12.40
2023-03-26T01:30:33.578Z,12.34
2023-03-26T01:33:30.281Z,12.34
2023-03-26T01:36:05.486Z,12.30
2023-03-26T01:39:09.721Z,12.32
2023-03-26T01:41:47.804Z,12.25
2023-03-26T01:44:31.743Z,12.27
2023-03-26T01:47:01.135Z,12.19
2023-03-26T01:49:29.215Z,12.25
2023-03-26T01:51:58.045Z,12.24
2023-03-26T01:54:28.759Z,12.22
2023-03-26T01:57:24.100Z,12.21
2023-03-26T02:00:29.362Z,12.19
2023-03-26T02:03:19.566Z,12.18
2023-03-26T02:06:07.470Z,12.17
2023-03-26T02:08:41.290Z,12.15
2023-03-26T02:11:13.684Z,12.10
2023-03-26T02:13:45.355Z,12.15
2023-03-26T02:16:16.524Z,12.13
2023-03-26T02:18:51.380Z,12.05
2023-03-26T02:21:22.109Z,12.08
2023-03-26T02:23:57.694Z,12.08
2023-03-26T02:26:25.764Z,12.06
2023-03-26T02:28:58.736Z,12.07
2023-03-26T02:31:26.556Z,12.02
2023-03-26T02:33:55.525Z,12.04
2023-03-26T02:36:27.805Z,12.07
2023-03-26T02:38:58.166Z,12.05
2023-03-26T02:41:25.396Z,12.05
2023-03-26T02:44:06.252Z,12.04
2023-03-26T02:46:59.308Z,11.98
2023-03-26T02:49:45.299Z,12.01
2023-03-26T02:52:18.715Z,12.00
2023-03-26T02:54:47.489Z,12.00
2023-03-26T02:57:17.911Z,12.01
2023-03-26T02:59:50.564Z,11.99
2023-03-26T03:02:38.753Z,11.96
2023-03-26T03:05:26.588Z,11.95
2023-03-26T03:08:06.881Z,11.94
2023-03-26T03:10:37.849Z,11.94
2023-03-26T03:13:18.014Z,11.93
2023-03-26T03:15:44.966Z,11.94
2023-03-26T03:18:11.862Z,11.96
2023-03-26T03:20:38.780Z,11.96
2023-03-26T03:23:05.690Z,11.96
2023-03-26T03:25:33.797Z,11.96
2023-03-26T03:28:00.933Z,11.97
2023-03-26T03:30:27.885Z,11.97
2023-03-26T03:33:19.196Z,11.98
2023-03-26T03:35:50.650Z,11.97
2023-03-26T03:38:19.240Z,11.92
2023-03-26T03:40:49.228Z,11.96
2023-03-26T03:43:17.258Z,11.97
2023-03-26T03:46:04.639Z,11.96
2023-03-26T03:48:39.821Z,11.98
2023-03-26T03:51:08.135Z,12.00
2023-03-26T03:53:50.418Z,12.01
2023-03-26T03:56:29.154Z,12.02
2023-03-26T03:59:17.562Z,12.03
2023-03-26T04:01:46.652Z,12.04
2023-03-26T04:04:24.676Z,12.04
2023-03-26T04:06:57.827Z,12.05
2023-03-26T04:09:27.668Z,12.07
2023-03-26T04:11:58.637Z,12.04
2023-03-26T04:14:42.034Z,12.07
2023-03-26T04:17:16.396Z,12.06
2023-03-26T04:19:45.136Z,12.07
2023-03-26T04:22:14.149Z,12.04
2023-03-26T04:24:54.319Z,12.06
2023-03-26T04:27:32.983Z,12.04
2023-03-26T04:30:20.564Z,11.99
2023-03-26T04:32:54.405Z,12.03
2023-03-26T04:35:21.630Z,12.02
2023-03-26T04:37:54.432Z,11.98
2023-03-26T04:40:39.039Z,11.94
2023-03-26T04:43:24.717Z,11.89
2023-03-26T04:46:18.533Z,11.83
2023-03-26T04:48:52.760Z,11.83
2023-03-26T04:51:25.608Z,11.81
2023-03-26T04:53:57.859Z,11.83
2023-03-26T04:56:53.281Z,11.84
2023-03-26T04:59:35.319Z,11.84
2023-03-26T05:02:06.392Z,11.88
2023-03-26T05:04:45.835Z,11.84
2023-03-26T05:07:20.464Z,11.87
2023-03-26T05:09:50.672Z,11.89
2023-03-26T05:12:23.368Z,11.90
2023-03-26T05:15:04.966Z,11.92
2023-03-26T05:17:48.458Z,11.92
2023-03-26T05:20:27.395Z,11.92
2023-03-26T05:22:54.687Z,11.88
2023-03-26T05:25:28.350Z,11.94
2023-03-26T05:27:56.425Z,11.97
2023-03-26T05:30:27.801Z,11.98
2023-03-26T05:32:59.148Z,11.98
2023-03-26T05:35:31.188Z,11.99
2023-03-26T05:37:58.598Z,11.96
2023-03-26T05:40:26.249Z,11.97
2023-03-26T05:43:00.907Z,12.03
2023-03-26T05:45:37.098Z,12.04
2023-03-26T05:48:26.136Z,12.04
2023-03-26T05:50:57.774Z,12.06
2023-03-26T05:53:28.041Z,12.10
2023-03-26T05:56:13.914Z,12.12
2023-03-26T05:59:01.168Z,12.15
2023-03-26T06:01:47.192Z,12.19
2023-03-26T06:04:32.559Z,12.20
2023-03-26T06:07:20.003Z,12.21
2023-03-26T06:09:59.709Z,12.26
2023-03-26T06:12:26.777Z,12.29
2023-03-26T06:14:53.717Z,12.34
2023-03-26T06:17:30.862Z,12.40
2023-03-26T06:20:12.872Z,12.41
2023-03-26T06:22:42.888Z,12.44
2023-03-26T06:25:33.544Z,12.43
2023-03-26T06:28:16.362Z,12.45
2023-03-26T06:31:02.280Z,12.50
2023-03-26T06:33:36.013Z,12.52
2023-03-26T06:36:03.896Z,12.53
2023-03-26T06:38:30.956Z,12.54
2023-03-26T06:41:06.167Z,12.56
2023-03-26T06:44:05.209Z,12.51
2023-03-26T06:46:50.666Z,12.46
2023-03-26T06:49:46.679Z,12.36
2023-03-26T06:52:28.572Z,12.30
2023-03-26T06:55:23.326Z,12.23
2023-03-26T06:58:06.624Z,12.20
2023-03-26T07:01:02.381Z,12.19
2023-03-26T07:03:47.748Z,12.20
2023-03-26T07:06:33.011Z,12.23
2023-03-26T07:09:18.408Z,12.28
2023-03-26T07:11:47.950Z,12.31
2023-03-26T07:14:41.129Z,12.38
2023-03-26T07:17:17.595Z,12.43
2023-03-26T07:19:50.020Z,12.48
2023-03-26T07:22:23.499Z,12.49
2023-03-26T07:25:14.936Z,12.57
2023-03-26T07:28:27.185Z,12.61
2023-03-26T07:31:34.627Z,12.54
2023-03-26T07:34:47.496Z,12.59
2023-03-26T07:37:59.307Z,12.58
2023-03-26T07:40:50.662Z,12.63
2023-03-26T07:43:53.592Z,12.60
2023-03-26T07:46:37.352Z,12.71
2023-03-26T07:49:17.850Z,12.79
2023-03-26T07:52:01.297Z,12.81
2023-03-26T07:54:46.733Z,12.81
2023-03-26T07:57:48.471Z,12.82
2023-03-26T08:00:39.244Z,12.88
2023-03-26T08:03:36.744Z,12.93
2023-03-26T08:06:37.817Z,12.95
2023-03-26T08:09:23.583Z,13.02
2023-03-26T08:12:45.361Z,13.00
2023-03-26T08:15:37.912Z,13.10
2023-03-26T08:18:49.998Z,13.12
2023-03-26T08:22:26.246Z,13.16
2023-03-26T08:25:17.729Z,13.18
2023-03-26T08:28:15.619Z,13.22
2023-03-26T08:30:43.652Z,13.26
2023-03-26T08:33:19.021Z,13.33
2023-03-26T08:35:46.953Z,13.39
2023-03-26T08:38:18.329Z,13.44
2023-03-26T08:41:10.347Z,13.49
2023-03-26T08:44:17.922Z,13.50
2023-03-26T08:47:23.921Z,13.48
2023-03-26T08:50:09.943Z,13.49
2023-03-26T08:53:39.294Z,13.56
2023-03-26T08:56:24.194Z,13.63
2023-03-26T08:59:51.566Z,13.69
2023-03-26T09:03:00.356Z,13.76
2023-03-26T09:06:06.830Z,13.86
2023-03-26T09:09:21.896Z,13.88
2023-03-26T09:12:01.802Z,13.89
2023-03-26T09:15:04.475Z,13.91
2023-03-26T09:18:05.733Z,13.94
2023-03-26T09:21:18.147Z,13.94
2023-03-26T09:24:50.880Z,13.90
2023-03-26T09:28:16.271Z,13.90
2023-03-26T09:31:58.208Z,13.90
2023-03-26T09:35:35.454Z,13.95
2023-03-26T09:38:42.227Z,14.01
2023-03-26T09:41:35.369Z,14.08
2023-03-26T09:44:44.452Z,14.18
2023-03-26T09:47:50.287Z,14.23
2023-03-26T09:51:00.905Z,14.32
2023-03-26T09:53:50.610Z,14.37
2023-03-26T09:56:49.772Z,14.44
2023-03-26T09:59:47.812Z,14.48
2023-03-26T10:02:53.340Z,14.49
2023-03-26T10:05:45.456Z,14.47
2023-03-26T10:08:32.555Z,14.46
2023-03-26T10:11:13.087Z,14.48
2023-03-26T10:13:52.493Z,14.51
2023-03-26T10:16:49.961Z,14.50
2023-03-26T10:19:59.812Z,14.50
2023-03-26T10:23:01.792Z,14.48
2023-03-26T10:26:15.997Z,14.51
2023-03-26T10:29:08.383Z,14.47
2023-03-26T10:32:17.985Z,14.45
2023-03-26T10:34:59.014Z,14.48
2023-03-26T10:37:47.942Z,14.54
2023-03-26T10:40:42.774Z,14.57
2023-03-26T10:43:39.605Z,14.63
2023-03-26T10:46:39.728Z,14.69
2023-03-26T10:49:39.724Z,14.75
2023-03-26T10:52:16.287Z,14.75
2023-03-26T10:54:56.412Z,14.74
2023-03-26T10:57:45.995Z,14.76
2023-03-26T11:00:28.878Z,14.78
2023-03-26T11:03:45.343Z,14.85
2023-03-26T11:06:48.762Z,14.95
2023-03-26T11:09:34.022Z,15.05
2023-03-26T11:12:28.459Z,15.14
2023-03-26T11:15:23.529Z,15.20
2023-03-26T11:18:20.706Z,15.23
2023-03-26T11:21:19.527Z,15.21
2023-03-26T11:24:25.513Z,15.16
2023-03-26T11:26:58.182Z,15.16
2023-03-26T11:30:03.549Z,15.11
2023-03-26T11:32:57.268Z,15.09
2023-03-26T11:35:44.000Z,15.11
2023-03-26T11:38:27.159Z,15.06
2023-03-26T11:40:56.935Z,15.05
2023-03-26T11:43:50.372Z,15.03
2023-03-26T11:46:21.615Z,15.05
2023-03-26T11:49:16.205Z,15.07
2023-03-26T11:51:47.424Z,15.10
2023-03-26T11:54:15.145Z,15.07
2023-03-26T11:57:05.148Z,15.06
2023-03-26T11:59:58.124Z,15.10
2023-03-26T12:02:35.555Z,15.19
2023-03-26T12:05:17.913Z,15.25
2023-03-26T12:07:49.394Z,15.27
2023-03-26T12:10:39.723Z,15.34
2023-03-26T12:13:21.212Z,15.37
2023-03-26T12:15:48.204Z,15.33
2023-03-26T12:18:26.058Z,15.34
2023-03-26T12:21:25.855Z,15.33
2023-03-26T12:24:04.670Z,15.30
2023-03-26T12:26:42.768Z,15.34
2023-03-26T12:29:17.116Z,15.28
2023-03-26T12:32:04.590Z,15.28
2023-03-26T12:34:35.894Z,15.20
2023-03-26T12:37:05.505Z,15.11
2023-03-26T12:40:09.418Z,15.10
2023-03-26T12:44:47.302Z,15.11
2023-03-26T12:45:24.655Z,15.14
2023-03-26T12:47:58.515Z,15.16
2023-03-26T12:51:01.753Z,15.09
2023-03-26T12:54:03.107Z,15.00
2023-03-26T12:57:11.990Z,14.93
2023-03-26T13:00:16.351Z,14.74
2023-03-26T13:03:12.111Z,14.72
2023-03-26T13:06:10.609Z,14.66
2023-03-26T13:09:12.994Z,14.69
2023-03-26T13:11:49.684Z,14.71
2023-03-26T13:14:35.013Z,14.74
2023-03-26T13:17:37.019Z,14.75
2023-03-26T13:20:30.557Z,14.74
2023-03-26T13:23:23.248Z,14.76
2023-03-26T13:26:18.072Z,14.84
2023-03-26T13:29:26.655Z,14.88
2023-03-26T13:32:20.531Z,14.88
2023-03-26T13:35:19.027Z,14.85
2023-03-26T13:38:09.014Z,14.83
2023-03-26T13:40:45.217Z,14.86
2023-03-26T13:43:53.592Z,14.87
2023-03-26T13:46:41.435Z,14.93
2023-03-26T13:49:08.205Z,14.94
2023-03-26T13:51:57.490Z,14.87
2023-03-26T13:54:55.856Z,14.81
2023-03-26T13:57:37.326Z,14.80
2023-03-26T14:00:14.105Z,14.85
2023-03-26T14:02:44.178Z,14.89
2023-03-26T14:05:31.208Z,14.91
2023-03-26T14:08:21.953Z,14.92
2023-03-26T14:11:07.696Z,14.89
2023-03-26T14:13:55.761Z,14.85
2023-03-26T14:16:37.145Z,14.83
2023-03-26T14:19:50.966Z,14.84
2023-03-26T14:23:12.774Z,14.86
2023-03-26T14:25:59.091Z,14.97
2023-03-26T14:29:18.786Z,15.03
2023-03-26T14:32:16.364Z,15.05
2023-03-26T14:35:20.998Z,15.07
2023-03-26T14:38:39.917Z,15.05
2023-03-26T14:41:24.000Z,15.03
2023-03-26T14:44:21.179Z,14.99
2023-03-26T14:47:10.064Z,14.95
2023-03-26T14:50:04.560Z,14.94
2023-03-26T14:52:48.068Z,14.93
2023-03-26T14:55:48.548Z,14.89
2023-03-26T14:58:41.579Z,14.82
2023-03-26T15:01:26.667Z,14.74
2023-03-26T15:04:30.317Z,14.67
2023-03-26T15:07:21.433Z,14.61
2023-03-26T15:10:16.798Z,14.58
2023-03-26T15:13:27.804Z,14.53
2023-03-26T15:16:49.636Z,14.45
2023-03-26T15:19:53.079Z,14.40
2023-03-26T15:22:43.226Z,14.39
2023-03-26T15:25:51.483Z,14.38
2023-03-26T15:29:05.302Z,14.37
2023-03-26T15:32:03.646Z,14.36
2023-03-26T15:35:09.668Z,14.37
2023-03-26T15:38:08.032Z,14.40
2023-03-26T15:40:59.541Z,14.40
2023-03-26T15:44:22.392Z,14.39
2023-03-26T15:46:37.935Z,14.34
2023-03-26T15:49:52.657Z,14.15
2023-03-26T15:52:36.459Z,14.10
2023-03-26T15:55:31.080Z,14.05
2023-03-26T15:58:26.151Z,14.09
2023-03-26T16:01:38.019Z,14.00
2023-03-26T16:04:38.773Z,13.93
2023-03-26T16:07:48.346Z,13.82
2023-03-26T16:10:40.845Z,13.72
2023-03-26T16:13:17.337Z,13.69
2023-03-26T16:15:55.920Z,13.62
2023-03-26T16:18:36.981Z,13.57
2023-03-26T16:21:32.842Z,13.51
2023-03-26T16:24:02.889Z,13.47
2023-03-26T16:26:53.075Z,13.38
2023-03-26T16:29:28.510Z,13.32
2023-03-26T16:32:15.779Z,13.26
2023-03-26T16:34:55.211Z,13.12
2023-03-26T16:37:50.580Z,13.11
2023-03-26T16:40:17.413Z,13.08
2023-03-26T16:43:02.087Z,13.01
2023-03-26T16:45:50.349Z,12.95
2023-03-26T16:48:30.463Z,12.83
2023-03-26T16:51:34.476Z,12.77
2023-03-26T16:54:28.111Z,12.65
2023-03-26T16:57:17.230Z,12.71
2023-03-26T17:00:16.216Z,12.65
2023-03-26T17:03:13.122Z,12.61
2023-03-26T17:05:58.020Z,12.49
2023-03-26T17:08:54.582Z,12.32
2023-03-26T17:12:00.739Z,12.06
2023-03-26T17:15:07.437Z,11.96
2023-03-26T17:18:01.243Z,11.88
2023-03-26T17:20:43.083Z,11.86
2023-03-26T17:24:15.665Z,11.85
2023-03-26T17:27:28.253Z,11.83
2023-03-26T17:30:51.861Z,11.81
2023-03-26T17:33:26.868Z,11.80
2023-03-26T17:36:21.382Z,11.78
2023-03-26T17:38:48.183Z,11.75
2023-03-26T17:41:55.409Z,11.68
2023-03-26T17:44:42.987Z,11.65
2023-03-26T17:47:39.687Z,11.58
2023-03-26T17:50:24.051Z,11.52
2023-03-26T17:53:03.007Z,11.45
2023-03-26T17:55:33.773Z,11.41
2023-03-26T17:58:23.129Z,11.38
2023-03-26T18:00:56.880Z,11.36
2023-03-26T18:03:34.943Z,11.34
2023-03-26T18:07:01.979Z,11.30
2023-03-26T18:09:45.656Z,11.25
2023-03-26T18:13:03.234Z,11.22
2023-03-26T18:16:15.725Z,11.18
2023-03-26T18:18:58.898Z,11.18
2023-03-26T18:21:38.891Z,11.17
2023-03-26T18:24:16.511Z,11.17
2023-03-26T18:26:48.544Z,11.18
2023-03-26T18:29:29.820Z,11.17
2023-03-26T18:32:00.870Z,11.21
2023-03-26T18:34:32.718Z,11.21
2023-03-26T18:37:11.156Z,11.20
2023-03-26T18:39:38.595Z,11.15
2023-03-26T18:42:06.970Z,11.12
2023-03-26T18:44:39.474Z,11.14
2023-03-26T18:47:09.576Z,11.12
2023-03-26T18:49:36.686Z,11.08
2023-03-26T18:52:03.737Z,11.04
2023-03-26T18:54:35.400Z,10.99
2023-03-26T18:57:21.472Z,10.93
2023-03-26T18:59:54.956Z,10.90
2023-03-26T19:02:22.701Z,10.76
2023-03-26T19:04:52.020Z,10.60
2023-03-26T19:07:25.830Z,10.48
2023-03-26T19:09:56.347Z,10.47
2023-03-26T19:12:33.131Z,10.45
2023-03-26T19:15:13.979Z,10.41
2023-03-26T19:17:46.446Z,10.34
2023-03-26T19:20:21.907Z,10.37
2023-03-26T19:22:49.318Z,10.34
2023-03-26T19:25:39.432Z,10.28
2023-03-26T19:28:22.100Z,10.19
2023-03-26T19:30:55.761Z,10.09
2023-03-26T19:33:24.461Z,10.00
2023-03-26T19:36:15.578Z,9.85
2023-03-26T19:38:49.986Z,9.73
2023-03-26T19:41:36.711Z,9.66
2023-03-26T19:44:21.160Z,9.53
2023-03-26T19:46:53.841Z,9.49
2023-03-26T19:49:41.264Z,9.43
2023-03-26T19:52:34.298Z,9.38
2023-03-26T19:55:15.490Z,9.37
2023-03-26T19:57:43.110Z,9.36
2023-03-26T20:00:15.103Z,9.37
2023-03-26T20:02:45.994Z,9.35
2023-03-26T20:05:28.837Z,9.41
2023-03-26T20:08:06.089Z,9.42
2023-03-26T20:10:35.867Z,9.42
2023-03-26T20:13:02.766Z,9.40
2023-03-26T20:15:33.270Z,9.39
2023-03-26T20:18:00.893Z,9.38
2023-03-26T20:20:27.891Z,9.37
2023-03-26T20:22:55.056Z,9.34
2023-03-26T20:25:33.292Z,9.32
2023-03-26T20:28:00.313Z,9.29
2023-03-26T20:30:37.376Z,9.27
2023-03-26T20:33:12.342Z,9.23
2023-03-26T20:35:41.158Z,9.19
2023-03-26T20:38:09.699Z,9.16
2023-03-26T20:40:38.240Z,9.13
2023-03-26T20:43:12.059Z,9.08
2023-03-26T20:45:39.292Z,9.06
2023-03-26T20:48:07.461Z,9.02
2023-03-26T20:50:35.972Z,8.94
2023-03-26T20:53:05.551Z,8.87
2023-03-26T20:55:32.472Z,8.82
2023-03-26T20:57:59.511Z,8.81
2023-03-26T21:00:26.505Z,8.73
2023-03-26T21:02:56.301Z,8.65
2023-03-26T21:05:26.886Z,8.59
2023-03-26T21:07:59.034Z,8.51
2023-03-26T21:10:31.020Z,8.47
2023-03-26T21:13:13.530Z,8.38
2023-03-26T21:15:40.697Z,8.44
2023-03-26T21:18:08.291Z,8.46
2023-03-26T21:20:37.154Z,8.51
2023-03-26T21:23:25.046Z,8.54
2023-03-26T21:26:25.494Z,8.56
2023-03-26T21:28:52.910Z,8.57
2023-03-26T21:31:24.076Z,8.56
2023-03-26T21:33:51.872Z,8.55
2023-03-26T21:36:19.928Z,8.55
2023-03-26T21:38:47.499Z,8.51
2023-03-26T21:41:23.242Z,8.51
2023-03-26T21:43:52.985Z,8.49
2023-03-26T21:46:20.546Z,8.45
2023-03-26T21:48:47.784Z,8.41
2023-03-26T21:51:15.146Z,8.38
2023-03-26T21:53:42.974Z,8.34
2023-03-26T21:56:46.047Z,8.19
2023-03-26T21:59:31.174Z,8.07
2023-03-26T22:02:29.178Z,7.95
2023-03-26T22:05:04.418Z,7.88
2023-03-26T22:07:43.488Z,7.81
2023-03-26T22:10:10.456Z,7.74
2023-03-26T22:12:37.336Z,7.66
2023-03-26T22:15:04.681Z,7.60
2023-03-26T22:17:32.705Z,7.60
2023-03-26T22:20:01.407Z,7.56
2023-03-26T22:22:28.882Z,7.50
2023-03-26T22:24:55.771Z,7.49
2023-03-26T22:27:22.672Z,7.47
2023-03-26T22:29:49.601Z,7.44
2023-03-26T22:32:16.640Z,7.40
2023-03-26T22:34:44.898Z,7.40
2023-03-26T22:37:11.912Z,7.41
2023-03-26T22:39:38.823Z,7.38
2023-03-26T22:42:05.902Z,7.40
2023-03-26T22:44:32.812Z,7.36
2023-03-26T22:47:01.295Z,7.35
2023-03-26T22:49:30.270Z,7.31
2023-03-26T22:51:57.251Z,7.33
2023-03-26T22:54:24.157Z,7.39
2023-03-26T22:56:52.298Z,7.45
2023-03-26T22:59:19.332Z,7.49
2023-03-26T23:01:46.628Z,7.50
2023-03-26T23:04:30.779Z,7.51
2023-03-26T23:06:58.918Z,7.50
2023-03-26T23:09:25.863Z,7.41
2023-03-26T23:11:52.724Z,7.30
2023-03-26T23:14:19.602Z,7.19
2023-03-26T23:16:46.470Z,7.07
2023-03-26T23:19:13.418Z,6.95
2023-03-26T23:21:40.328Z,6.87
2023-03-26T23:24:07.227Z,6.83
2023-03-26T23:26:49.566Z,6.78
2023-03-26T23:29:17.354Z,6.75
2023-03-26T23:31:44.339Z,6.69
2023-03-26T23:34:13.355Z,6.64
2023-03-26T23:36:41.702Z,6.57
2023-03-26T23:39:09.271Z,6.49
2023-03-26T23:41:36.746Z,6.44
2023-03-26T23:44:04.028Z,6.43
2023-03-26T23:46:34.581Z,6.43
2023-03-26T23:49:03.442Z,6.43
2023-03-26T23:51:31.023Z,6.43
2023-03-26T23:53:58.415Z,6.47
2023-03-26T23:56:27.547Z,6.47
2023-03-26T23:58:55.165Z,6.56
